sensor_id;sensor_type;location;lat;lon;timestamp;temperature;humidity
51613;DHT22;37694;51.748;14.326;2022-08-19T00:00:25;22.60;46.10
51613;DHT22;37694;51.748;14.326;2022-08-19T00:02:51;22.50;45.90
51613;DHT22;37694;51.748;14.326;2022-08-19T00:05:17;22.50;45.80
51613;DHT22;37694;51.748;14.326;2022-08-19T00:07:44;22.50;45.70
51613;DHT22;37694;51.748;14.326;2022-08-19T00:10:12;22.50;46.30
51613;DHT22;37694;51.748;14.326;2022-08-19T00:12:38;22.40;45.40
51613;DHT22;37694;51.748;14.326;2022-08-19T00:15:06;22.40;45.40
51613;DHT22;37694;51.748;14.326;2022-08-19T00:17:32;22.40;45.30
51613;DHT22;37694;51.748;14.326;2022-08-19T00:19:58;22.50;45.00
51613;DHT22;37694;51.748;14.326;2022-08-19T00:22:23;22.40;44.90
51613;DHT22;37694;51.748;14.326;2022-08-19T00:24:49;22.40;45.00
51613;DHT22;37694;51.748;14.326;2022-08-19T00:27:15;22.40;44.80
51613;DHT22;37694;51.748;14.326;2022-08-19T00:29:41;22.30;44.70
51613;DHT22;37694;51.748;14.326;2022-08-19T00:32:06;22.30;45.60
51613;DHT22;37694;51.748;14.326;2022-08-19T00:34:32;22.30;44.90
51613;DHT22;37694;51.748;14.326;2022-08-19T00:36:58;22.30;44.80
51613;DHT22;37694;51.748;14.326;2022-08-19T00:39:25;22.20;45.00
51613;DHT22;37694;51.748;14.326;2022-08-19T00:41:50;22.20;44.80
51613;DHT22;37694;51.748;14.326;2022-08-19T00:44:26;22.20;45.80
51613;DHT22;37694;51.748;14.326;2022-08-19T00:46:54;22.20;44.80
51613;DHT22;37694;51.748;14.326;2022-08-19T00:49:27;22.20;45.00
51613;DHT22;37694;51.748;14.326;2022-08-19T00:52:06;22.20;44.80
51613;DHT22;37694;51.748;14.326;2022-08-19T00:54:36;22.20;44.60
51613;DHT22;37694;51.748;14.326;2022-08-19T00:57:05;22.10;45.60
51613;DHT22;37694;51.748;14.326;2022-08-19T00:59:31;22.10;44.80
51613;DHT22;37694;51.748;14.326;2022-08-19T01:01:59;22.10;44.80
51613;DHT22;37694;51.748;14.326;2022-08-19T01:04:25;22.10;44.80
51613;DHT22;37694;51.748;14.326;2022-08-19T01:06:50;22.10;44.90
51613;DHT22;37694;51.748;14.326;2022-08-19T01:09:16;22.10;44.80
51613;DHT22;37694;51.748;14.326;2022-08-19T01:11:43;22.00;44.60
51613;DHT22;37694;51.748;14.326;2022-08-19T01:14:10;22.10;44.70
51613;DHT22;37694;51.748;14.326;2022-08-19T01:16:37;22.10;44.70
51613;DHT22;37694;51.748;14.326;2022-08-19T01:19:29;22.10;44.80
51613;DHT22;37694;51.748;14.326;2022-08-19T01:22:12;22.10;44.70
51613;DHT22;37694;51.748;14.326;2022-08-19T01:24:40;22.10;44.70
51613;DHT22;37694;51.748;14.326;2022-08-19T01:27:12;22.10;45.00
51613;DHT22;37694;51.748;14.326;2022-08-19T01:29:40;22.10;45.90
51613;DHT22;37694;51.748;14.326;2022-08-19T01:32:07;22.00;45.30
51613;DHT22;37694;51.748;14.326;2022-08-19T01:34:34;22.00;45.40
51613;DHT22;37694;51.748;14.326;2022-08-19T01:37:00;22.00;45.50
51613;DHT22;37694;51.748;14.326;2022-08-19T01:39:30;22.00;45.40
51613;DHT22;37694;51.748;14.326;2022-08-19T01:41:56;22.00;45.40
51613;DHT22;37694;51.748;14.326;2022-08-19T01:44:22;22.00;45.40
51613;DHT22;37694;51.748;14.326;2022-08-19T01:46:50;22.00;45.20
51613;DHT22;37694;51.748;14.326;2022-08-19T01:49:18;22.00;45.00
51613;DHT22;37694;51.748;14.326;2022-08-19T01:51:45;22.00;44.90
51613;DHT22;37694;51.748;14.326;2022-08-19T01:54:12;21.90;44.80
51613;DHT22;37694;51.748;14.326;2022-08-19T01:56:39;22.00;44.90
51613;DHT22;37694;51.748;14.326;2022-08-19T01:59:09;22.00;44.70
51613;DHT22;37694;51.748;14.326;2022-08-19T02:01:35;22.00;44.40
51613;DHT22;37694;51.748;14.326;2022-08-19T02:04:01;21.90;44.50
51613;DHT22;37694;51.748;14.326;2022-08-19T02:06:28;21.90;44.30
51613;DHT22;37694;51.748;14.326;2022-08-19T02:08:54;21.80;44.20
51613;DHT22;37694;51.748;14.326;2022-08-19T02:11:27;21.90;44.30
51613;DHT22;37694;51.748;14.326;2022-08-19T02:13:54;21.90;44.30
51613;DHT22;37694;51.748;14.326;2022-08-19T02:16:20;21.80;44.20
51613;DHT22;37694;51.748;14.326;2022-08-19T02:18:47;21.80;44.20
51613;DHT22;37694;51.748;14.326;2022-08-19T02:21:17;21.80;44.10
51613;DHT22;37694;51.748;14.326;2022-08-19T02:23:44;21.80;44.20
51613;DHT22;37694;51.748;14.326;2022-08-19T02:26:10;21.80;44.10
51613;DHT22;37694;51.748;14.326;2022-08-19T02:28:36;21.80;43.90
51613;DHT22;37694;51.748;14.326;2022-08-19T02:31:02;21.70;44.20
51613;DHT22;37694;51.748;14.326;2022-08-19T02:33:28;21.80;44.20
51613;DHT22;37694;51.748;14.326;2022-08-19T02:35:54;21.80;44.00
51613;DHT22;37694;51.748;14.326;2022-08-19T02:38:19;21.80;43.80
51613;DHT22;37694;51.748;14.326;2022-08-19T02:43:22;21.70;43.60
51613;DHT22;37694;51.748;14.326;2022-08-19T02:45:49;21.80;43.90
51613;DHT22;37694;51.748;14.326;2022-08-19T02:48:25;21.70;43.60
51613;DHT22;37694;51.748;14.326;2022-08-19T02:50:52;21.70;43.60
51613;DHT22;37694;51.748;14.326;2022-08-19T02:53:21;21.70;43.70
51613;DHT22;37694;51.748;14.326;2022-08-19T02:55:48;21.70;43.70
51613;DHT22;37694;51.748;14.326;2022-08-19T02:58:14;21.70;43.60
51613;DHT22;37694;51.748;14.326;2022-08-19T03:00:51;21.70;43.60
51613;DHT22;37694;51.748;14.326;2022-08-19T03:03:18;21.70;43.40
51613;DHT22;37694;51.748;14.326;2022-08-19T03:05:44;21.70;43.50
51613;DHT22;37694;51.748;14.326;2022-08-19T03:08:10;21.60;43.50
51613;DHT22;37694;51.748;14.326;2022-08-19T03:10:47;21.60;43.60
51613;DHT22;37694;51.748;14.326;2022-08-19T03:13:15;21.60;43.40
51613;DHT22;37694;51.748;14.326;2022-08-19T03:15:46;21.60;43.60
51613;DHT22;37694;51.748;14.326;2022-08-19T03:18:13;21.60;43.50
51613;DHT22;37694;51.748;14.326;2022-08-19T03:20:44;21.60;43.60
51613;DHT22;37694;51.748;14.326;2022-08-19T03:23:10;21.60;43.50
51613;DHT22;37694;51.748;14.326;2022-08-19T03:25:38;21.60;43.50
51613;DHT22;37694;51.748;14.326;2022-08-19T03:28:05;21.60;43.20
51613;DHT22;37694;51.748;14.326;2022-08-19T03:30:32;21.60;43.40
51613;DHT22;37694;51.748;14.326;2022-08-19T03:32:58;21.60;43.40
51613;DHT22;37694;51.748;14.326;2022-08-19T03:35:24;21.60;43.40
51613;DHT22;37694;51.748;14.326;2022-08-19T03:37:49;21.60;43.40
51613;DHT22;37694;51.748;14.326;2022-08-19T03:40:16;21.50;43.30
51613;DHT22;37694;51.748;14.326;2022-08-19T03:42:41;21.60;44.10
51613;DHT22;37694;51.748;14.326;2022-08-19T03:45:08;21.50;43.40
51613;DHT22;37694;51.748;14.326;2022-08-19T03:47:33;21.60;43.40
51613;DHT22;37694;51.748;14.326;2022-08-19T03:49:59;21.50;43.40
51613;DHT22;37694;51.748;14.326;2022-08-19T03:52:24;21.50;43.50
51613;DHT22;37694;51.748;14.326;2022-08-19T03:54:50;21.50;43.70
51613;DHT22;37694;51.748;14.326;2022-08-19T03:57:16;21.50;43.50
51613;DHT22;37694;51.748;14.326;2022-08-19T03:59:42;21.50;43.50
51613;DHT22;37694;51.748;14.326;2022-08-19T04:02:11;21.40;43.40
51613;DHT22;37694;51.748;14.326;2022-08-19T04:04:39;21.50;43.40
51613;DHT22;37694;51.748;14.326;2022-08-19T04:07:05;21.40;43.50
51613;DHT22;37694;51.748;14.326;2022-08-19T04:09:33;21.40;43.60
51613;DHT22;37694;51.748;14.326;2022-08-19T04:11:59;21.40;43.50
51613;DHT22;37694;51.748;14.326;2022-08-19T04:14:29;21.40;43.40
51613;DHT22;37694;51.748;14.326;2022-08-19T04:17:00;21.40;43.40
51613;DHT22;37694;51.748;14.326;2022-08-19T04:19:26;21.30;43.60
51613;DHT22;37694;51.748;14.326;2022-08-19T04:21:53;21.30;43.50
51613;DHT22;37694;51.748;14.326;2022-08-19T04:24:20;21.30;43.50
51613;DHT22;37694;51.748;14.326;2022-08-19T04:26:46;21.40;43.50
51613;DHT22;37694;51.748;14.326;2022-08-19T04:29:15;21.30;43.60
51613;DHT22;37694;51.748;14.326;2022-08-19T04:31:43;21.30;43.50
51613;DHT22;37694;51.748;14.326;2022-08-19T04:34:11;21.30;43.60
51613;DHT22;37694;51.748;14.326;2022-08-19T04:36:39;21.30;43.50
51613;DHT22;37694;51.748;14.326;2022-08-19T04:39:09;21.30;43.50
51613;DHT22;37694;51.748;14.326;2022-08-19T04:41:36;21.30;43.40
51613;DHT22;37694;51.748;14.326;2022-08-19T04:44:21;21.30;43.50
51613;DHT22;37694;51.748;14.326;2022-08-19T04:46:48;21.30;43.50
51613;DHT22;37694;51.748;14.326;2022-08-19T04:49:15;21.30;43.50
51613;DHT22;37694;51.748;14.326;2022-08-19T04:51:44;21.30;43.60
51613;DHT22;37694;51.748;14.326;2022-08-19T04:54:10;21.40;43.70
51613;DHT22;37694;51.748;14.326;2022-08-19T04:56:36;21.30;43.50
51613;DHT22;37694;51.748;14.326;2022-08-19T04:59:01;21.30;43.50
51613;DHT22;37694;51.748;14.326;2022-08-19T05:01:32;21.30;43.70
51613;DHT22;37694;51.748;14.326;2022-08-19T05:04:02;21.30;43.70
51613;DHT22;37694;51.748;14.326;2022-08-19T05:06:30;21.30;43.70
51613;DHT22;37694;51.748;14.326;2022-08-19T05:08:58;21.30;43.70
51613;DHT22;37694;51.748;14.326;2022-08-19T05:11:26;21.30;43.80
51613;DHT22;37694;51.748;14.326;2022-08-19T05:13:53;21.30;43.70
51613;DHT22;37694;51.748;14.326;2022-08-19T05:16:21;21.30;43.80
51613;DHT22;37694;51.748;14.326;2022-08-19T05:18:47;21.30;43.80
51613;DHT22;37694;51.748;14.326;2022-08-19T05:21:32;21.30;44.20
51613;DHT22;37694;51.748;14.326;2022-08-19T05:24:18;21.50;44.70
51613;DHT22;37694;51.748;14.326;2022-08-19T05:26:46;21.70;45.20
51613;DHT22;37694;51.748;14.326;2022-08-19T05:29:14;21.90;45.20
51613;DHT22;37694;51.748;14.326;2022-08-19T05:31:40;22.10;45.40
51613;DHT22;37694;51.748;14.326;2022-08-19T05:34:06;22.20;45.80
51613;DHT22;37694;51.748;14.326;2022-08-19T05:36:40;22.30;46.20
51613;DHT22;37694;51.748;14.326;2022-08-19T05:39:13;22.50;46.60
51613;DHT22;37694;51.748;14.326;2022-08-19T05:41:43;22.60;47.00
51613;DHT22;37694;51.748;14.326;2022-08-19T05:44:09;22.70;48.00
51613;DHT22;37694;51.748;14.326;2022-08-19T05:46:36;22.80;48.50
51613;DHT22;37694;51.748;14.326;2022-08-19T05:49:03;22.90;49.00
51613;DHT22;37694;51.748;14.326;2022-08-19T05:51:30;23.00;49.50
51613;DHT22;37694;51.748;14.326;2022-08-19T05:53:55;23.00;49.50
51613;DHT22;37694;51.748;14.326;2022-08-19T05:56:21;23.10;49.60
51613;DHT22;37694;51.748;14.326;2022-08-19T05:58:47;23.20;49.70
51613;DHT22;37694;51.748;14.326;2022-08-19T06:01:15;23.20;49.70
51613;DHT22;37694;51.748;14.326;2022-08-19T06:03:41;23.30;49.70
51613;DHT22;37694;51.748;14.326;2022-08-19T06:06:10;23.30;49.70
51613;DHT22;37694;51.748;14.326;2022-08-19T06:08:36;23.40;49.90
51613;DHT22;37694;51.748;14.326;2022-08-19T06:11:19;23.40;50.30
51613;DHT22;37694;51.748;14.326;2022-08-19T06:13:46;23.50;50.60
51613;DHT22;37694;51.748;14.326;2022-08-19T06:16:15;23.50;50.60
51613;DHT22;37694;51.748;14.326;2022-08-19T06:18:46;23.60;51.20
51613;DHT22;37694;51.748;14.326;2022-08-19T06:21:12;23.60;50.90
51613;DHT22;37694;51.748;14.326;2022-08-19T06:23:38;23.70;50.80
51613;DHT22;37694;51.748;14.326;2022-08-19T06:26:04;23.70;50.50
51613;DHT22;37694;51.748;14.326;2022-08-19T06:28:30;23.70;50.30
51613;DHT22;37694;51.748;14.326;2022-08-19T06:30:55;23.80;50.30
51613;DHT22;37694;51.748;14.326;2022-08-19T06:33:21;23.80;50.10
51613;DHT22;37694;51.748;14.326;2022-08-19T06:35:47;23.90;50.10
51613;DHT22;37694;51.748;14.326;2022-08-19T06:38:12;23.90;50.00
51613;DHT22;37694;51.748;14.326;2022-08-19T06:40:38;23.90;49.80
51613;DHT22;37694;51.748;14.326;2022-08-19T06:43:03;23.90;49.70
51613;DHT22;37694;51.748;14.326;2022-08-19T06:45:29;24.00;49.60
51613;DHT22;37694;51.748;14.326;2022-08-19T06:47:55;24.00;49.50
51613;DHT22;37694;51.748;14.326;2022-08-19T06:50:22;24.00;49.40
51613;DHT22;37694;51.748;14.326;2022-08-19T06:52:48;24.00;49.30
51613;DHT22;37694;51.748;14.326;2022-08-19T06:55:14;24.10;50.10
51613;DHT22;37694;51.748;14.326;2022-08-19T06:57:41;24.10;49.20
51613;DHT22;37694;51.748;14.326;2022-08-19T07:00:08;24.10;49.00
51613;DHT22;37694;51.748;14.326;2022-08-19T07:02:43;24.10;49.00
51613;DHT22;37694;51.748;14.326;2022-08-19T07:05:08;24.20;49.00
51613;DHT22;37694;51.748;14.326;2022-08-19T07:07:35;24.20;48.80
51613;DHT22;37694;51.748;14.326;2022-08-19T07:10:01;24.20;48.90
51613;DHT22;37694;51.748;14.326;2022-08-19T07:12:29;24.20;48.80
51613;DHT22;37694;51.748;14.326;2022-08-19T07:14:58;24.30;48.70
51613;DHT22;37694;51.748;14.326;2022-08-19T07:17:23;24.30;48.80
51613;DHT22;37694;51.748;14.326;2022-08-19T07:19:49;24.30;48.60
51613;DHT22;37694;51.748;14.326;2022-08-19T07:22:15;24.30;48.60
51613;DHT22;37694;51.748;14.326;2022-08-19T07:24:41;24.30;48.50
51613;DHT22;37694;51.748;14.326;2022-08-19T07:27:07;24.40;48.50
51613;DHT22;37694;51.748;14.326;2022-08-19T07:29:34;24.40;48.50
51613;DHT22;37694;51.748;14.326;2022-08-19T07:32:02;24.40;48.40
51613;DHT22;37694;51.748;14.326;2022-08-19T07:34:29;24.40;48.40
51613;DHT22;37694;51.748;14.326;2022-08-19T07:36:56;24.50;48.50
51613;DHT22;37694;51.748;14.326;2022-08-19T07:39:28;24.50;48.40
51613;DHT22;37694;51.748;14.326;2022-08-19T07:41:56;24.50;48.40
51613;DHT22;37694;51.748;14.326;2022-08-19T07:44:22;24.50;48.40
51613;DHT22;37694;51.748;14.326;2022-08-19T07:46:51;24.50;48.40
51613;DHT22;37694;51.748;14.326;2022-08-19T07:49:17;24.50;48.40
51613;DHT22;37694;51.748;14.326;2022-08-19T07:52:00;24.60;48.40
51613;DHT22;37694;51.748;14.326;2022-08-19T07:54:28;24.60;48.30
51613;DHT22;37694;51.748;14.326;2022-08-19T07:56:54;24.60;49.20
51613;DHT22;37694;51.748;14.326;2022-08-19T07:59:20;24.60;48.40
51613;DHT22;37694;51.748;14.326;2022-08-19T08:01:47;24.60;48.40
51613;DHT22;37694;51.748;14.326;2022-08-19T08:04:13;24.60;48.40
51613;DHT22;37694;51.748;14.326;2022-08-19T08:06:58;24.70;48.40
51613;DHT22;37694;51.748;14.326;2022-08-19T08:09:44;24.70;48.50
51613;DHT22;37694;51.748;14.326;2022-08-19T08:12:16;24.70;48.50
51613;DHT22;37694;51.748;14.326;2022-08-19T08:14:44;24.70;48.40
51613;DHT22;37694;51.748;14.326;2022-08-19T08:17:11;24.70;48.50
51613;DHT22;37694;51.748;14.326;2022-08-19T08:19:38;24.70;48.40
51613;DHT22;37694;51.748;14.326;2022-08-19T08:22:06;24.70;48.40
51613;DHT22;37694;51.748;14.326;2022-08-19T08:24:32;24.70;48.40
51613;DHT22;37694;51.748;14.326;2022-08-19T08:27:00;24.70;48.40
51613;DHT22;37694;51.748;14.326;2022-08-19T08:29:27;24.80;48.40
51613;DHT22;37694;51.748;14.326;2022-08-19T08:31:53;24.80;48.50
51613;DHT22;37694;51.748;14.326;2022-08-19T08:34:19;24.80;48.50
51613;DHT22;37694;51.748;14.326;2022-08-19T08:36:46;24.80;48.50
51613;DHT22;37694;51.748;14.326;2022-08-19T08:39:14;24.80;48.40
51613;DHT22;37694;51.748;14.326;2022-08-19T08:41:58;24.80;48.40
51613;DHT22;37694;51.748;14.326;2022-08-19T08:47:25;24.90;48.40
51613;DHT22;37694;51.748;14.326;2022-08-19T08:49:56;24.90;48.50
51613;DHT22;37694;51.748;14.326;2022-08-19T08:52:28;24.90;48.50
51613;DHT22;37694;51.748;14.326;2022-08-19T08:54:57;24.90;48.40
51613;DHT22;37694;51.748;14.326;2022-08-19T08:57:29;24.90;48.40
51613;DHT22;37694;51.748;14.326;2022-08-19T09:00:00;24.90;48.40
51613;DHT22;37694;51.748;14.326;2022-08-19T09:02:29;24.90;48.40
51613;DHT22;37694;51.748;14.326;2022-08-19T09:04:55;25.00;48.50
51613;DHT22;37694;51.748;14.326;2022-08-19T09:07:26;25.00;48.40
51613;DHT22;37694;51.748;14.326;2022-08-19T09:10:02;25.00;48.40
51613;DHT22;37694;51.748;14.326;2022-08-19T09:15:12;25.10;48.30
51613;DHT22;37694;51.748;14.326;2022-08-19T09:17:38;25.10;48.40
51613;DHT22;37694;51.748;14.326;2022-08-19T09:22:33;25.10;48.40
51613;DHT22;37694;51.748;14.326;2022-08-19T09:24:59;25.10;48.40
51613;DHT22;37694;51.748;14.326;2022-08-19T09:27:26;25.10;48.50
51613;DHT22;37694;51.748;14.326;2022-08-19T09:29:52;25.10;48.40
51613;DHT22;37694;51.748;14.326;2022-08-19T09:32:20;25.10;48.40
51613;DHT22;37694;51.748;14.326;2022-08-19T09:34:46;25.20;48.50
51613;DHT22;37694;51.748;14.326;2022-08-19T09:37:12;25.20;48.50
51613;DHT22;37694;51.748;14.326;2022-08-19T09:39:39;25.20;48.40
51613;DHT22;37694;51.748;14.326;2022-08-19T09:42:06;25.20;48.50
51613;DHT22;37694;51.748;14.326;2022-08-19T09:44:40;25.20;48.40
51613;DHT22;37694;51.748;14.326;2022-08-19T09:47:06;25.20;48.40
51613;DHT22;37694;51.748;14.326;2022-08-19T09:49:32;25.20;48.40
51613;DHT22;37694;51.748;14.326;2022-08-19T09:51:58;25.20;48.40
51613;DHT22;37694;51.748;14.326;2022-08-19T09:54:25;25.20;48.50
51613;DHT22;37694;51.748;14.326;2022-08-19T09:56:52;25.20;48.50
51613;DHT22;37694;51.748;14.326;2022-08-19T09:59:17;25.30;48.50
51613;DHT22;37694;51.748;14.326;2022-08-19T10:01:43;25.30;48.50
51613;DHT22;37694;51.748;14.326;2022-08-19T10:04:09;25.30;48.50
51613;DHT22;37694;51.748;14.326;2022-08-19T10:06:37;25.30;48.40
51613;DHT22;37694;51.748;14.326;2022-08-19T10:09:06;25.30;48.40
51613;DHT22;37694;51.748;14.326;2022-08-19T10:11:34;25.30;48.40
51613;DHT22;37694;51.748;14.326;2022-08-19T10:14:01;25.30;48.50
51613;DHT22;37694;51.748;14.326;2022-08-19T10:16:27;25.40;48.50
51613;DHT22;37694;51.748;14.326;2022-08-19T10:18:53;25.40;48.40
51613;DHT22;37694;51.748;14.326;2022-08-19T10:21:31;25.40;48.50
51613;DHT22;37694;51.748;14.326;2022-08-19T10:23:59;25.40;48.40
51613;DHT22;37694;51.748;14.326;2022-08-19T10:26:28;25.40;48.40
51613;DHT22;37694;51.748;14.326;2022-08-19T10:28:55;25.40;48.40
51613;DHT22;37694;51.748;14.326;2022-08-19T10:31:23;25.40;48.40
51613;DHT22;37694;51.748;14.326;2022-08-19T10:33:50;25.40;48.40
51613;DHT22;37694;51.748;14.326;2022-08-19T10:36:22;25.50;48.40
51613;DHT22;37694;51.748;14.326;2022-08-19T10:38:51;25.50;49.20
51613;DHT22;37694;51.748;14.326;2022-08-19T10:41:21;25.50;48.30
51613;DHT22;37694;51.748;14.326;2022-08-19T10:43:51;25.40;48.30
51613;DHT22;37694;51.748;14.326;2022-08-19T10:46:18;25.50;48.50
51613;DHT22;37694;51.748;14.326;2022-08-19T10:48:44;25.50;48.50
51613;DHT22;37694;51.748;14.326;2022-08-19T10:51:11;25.50;48.40
51613;DHT22;37694;51.748;14.326;2022-08-19T10:53:56;25.60;48.40
51613;DHT22;37694;51.748;14.326;2022-08-19T10:56:22;25.50;48.40
51613;DHT22;37694;51.748;14.326;2022-08-19T10:59:06;25.50;48.50
51613;DHT22;37694;51.748;14.326;2022-08-19T11:01:33;25.60;48.50
51613;DHT22;37694;51.748;14.326;2022-08-19T11:04:03;25.60;48.50
51613;DHT22;37694;51.748;14.326;2022-08-19T11:06:31;25.60;48.50
51613;DHT22;37694;51.748;14.326;2022-08-19T11:08:58;25.60;48.40
51613;DHT22;37694;51.748;14.326;2022-08-19T11:11:25;25.60;48.50
51613;DHT22;37694;51.748;14.326;2022-08-19T11:13:52;25.60;48.50
51613;DHT22;37694;51.748;14.326;2022-08-19T11:16:24;25.60;48.40
51613;DHT22;37694;51.748;14.326;2022-08-19T11:18:53;25.60;48.40
51613;DHT22;37694;51.748;14.326;2022-08-19T11:23:46;25.70;48.50
51613;DHT22;37694;51.748;14.326;2022-08-19T11:26:14;25.70;48.40
51613;DHT22;37694;51.748;14.326;2022-08-19T11:28:40;25.70;48.40
51613;DHT22;37694;51.748;14.326;2022-08-19T11:31:13;25.70;48.40
51613;DHT22;37694;51.748;14.326;2022-08-19T11:33:39;25.70;48.30
51613;DHT22;37694;51.748;14.326;2022-08-19T11:36:05;25.70;48.60
51613;DHT22;37694;51.748;14.326;2022-08-19T11:38:30;25.70;48.60
51613;DHT22;37694;51.748;14.326;2022-08-19T11:40:59;25.70;49.50
51613;DHT22;37694;51.748;14.326;2022-08-19T11:43:25;25.70;48.60
51613;DHT22;37694;51.748;14.326;2022-08-19T11:45:55;25.70;48.50
51613;DHT22;37694;51.748;14.326;2022-08-19T11:48:21;25.70;48.50
51613;DHT22;37694;51.748;14.326;2022-08-19T11:50:53;25.70;49.30
51613;DHT22;37694;51.748;14.326;2022-08-19T11:53:22;25.60;48.10
51613;DHT22;37694;51.748;14.326;2022-08-19T11:55:48;25.10;46.80
51613;DHT22;37694;51.748;14.326;2022-08-19T11:58:16;24.60;46.90
51613;DHT22;37694;51.748;14.326;2022-08-19T12:00:43;24.20;47.00
51613;DHT22;37694;51.748;14.326;2022-08-19T12:03:11;23.90;46.70
51613;DHT22;37694;51.748;14.326;2022-08-19T12:05:38;23.70;46.00
51613;DHT22;37694;51.748;14.326;2022-08-19T12:08:04;23.60;47.00
51613;DHT22;37694;51.748;14.326;2022-08-19T12:10:30;23.50;46.00
51613;DHT22;37694;51.748;14.326;2022-08-19T12:12:55;23.30;45.90
51613;DHT22;37694;51.748;14.326;2022-08-19T12:15:21;23.30;45.80
51613;DHT22;37694;51.748;14.326;2022-08-19T12:17:48;23.20;45.80
51613;DHT22;37694;51.748;14.326;2022-08-19T12:20:14;23.10;45.60
51613;DHT22;37694;51.748;14.326;2022-08-19T12:22:41;23.00;45.50
51613;DHT22;37694;51.748;14.326;2022-08-19T12:25:08;22.90;45.50
51613;DHT22;37694;51.748;14.326;2022-08-19T12:27:35;22.90;45.40
51613;DHT22;37694;51.748;14.326;2022-08-19T12:30:02;22.80;45.40
51613;DHT22;37694;51.748;14.326;2022-08-19T12:32:28;22.80;45.30
51613;DHT22;37694;51.748;14.326;2022-08-19T12:34:54;22.70;44.90
51613;DHT22;37694;51.748;14.326;2022-08-19T12:37:19;22.60;45.10
51613;DHT22;37694;51.748;14.326;2022-08-19T12:39:45;22.60;45.00
51613;DHT22;37694;51.748;14.326;2022-08-19T12:42:12;22.50;46.30
51613;DHT22;37694;51.748;14.326;2022-08-19T12:44:40;22.50;48.00
51613;DHT22;37694;51.748;14.326;2022-08-19T12:47:06;22.70;50.00
51613;DHT22;37694;51.748;14.326;2022-08-19T12:49:33;22.80;50.20
51613;DHT22;37694;51.748;14.326;2022-08-19T12:52:05;23.00;50.00
51613;DHT22;37694;51.748;14.326;2022-08-19T12:54:31;23.00;51.40
51613;DHT22;37694;51.748;14.326;2022-08-19T12:56:57;22.90;51.20
51613;DHT22;37694;51.748;14.326;2022-08-19T12:59:24;22.90;51.80
51613;DHT22;37694;51.748;14.326;2022-08-19T13:01:50;22.80;52.40
51613;DHT22;37694;51.748;14.326;2022-08-19T13:04:16;22.80;53.00
51613;DHT22;37694;51.748;14.326;2022-08-19T13:06:42;22.80;53.40
51613;DHT22;37694;51.748;14.326;2022-08-19T13:09:08;22.80;53.60
51613;DHT22;37694;51.748;14.326;2022-08-19T13:11:34;22.80;53.20
51613;DHT22;37694;51.748;14.326;2022-08-19T13:14:01;22.80;53.60
51613;DHT22;37694;51.748;14.326;2022-08-19T13:16:28;22.70;54.00
51613;DHT22;37694;51.748;14.326;2022-08-19T13:18:54;22.80;54.50
51613;DHT22;37694;51.748;14.326;2022-08-19T13:21:23;22.80;54.70
51613;DHT22;37694;51.748;14.326;2022-08-19T13:23:50;22.80;54.70
51613;DHT22;37694;51.748;14.326;2022-08-19T13:26:16;22.80;54.80
51613;DHT22;37694;51.748;14.326;2022-08-19T13:28:42;22.80;54.90
51613;DHT22;37694;51.748;14.326;2022-08-19T13:31:29;22.80;55.10
51613;DHT22;37694;51.748;14.326;2022-08-19T13:34:14;22.80;55.20
51613;DHT22;37694;51.748;14.326;2022-08-19T13:36:40;22.80;55.40
51613;DHT22;37694;51.748;14.326;2022-08-19T13:39:07;22.80;55.40
51613;DHT22;37694;51.748;14.326;2022-08-19T13:41:34;22.80;55.40
51613;DHT22;37694;51.748;14.326;2022-08-19T13:44:00;22.80;55.50
51613;DHT22;37694;51.748;14.326;2022-08-19T13:46:27;22.90;55.60
51613;DHT22;37694;51.748;14.326;2022-08-19T13:48:55;22.90;55.80
51613;DHT22;37694;51.748;14.326;2022-08-19T13:51:22;23.00;55.70
51613;DHT22;37694;51.748;14.326;2022-08-19T13:53:48;23.10;53.90
51613;DHT22;37694;51.748;14.326;2022-08-19T13:56:16;23.20;53.40
51613;DHT22;37694;51.748;14.326;2022-08-19T13:58:43;23.10;51.80
51613;DHT22;37694;51.748;14.326;2022-08-19T14:01:09;23.00;51.10
51613;DHT22;37694;51.748;14.326;2022-08-19T14:03:36;22.90;50.80
51613;DHT22;37694;51.748;14.326;2022-08-19T14:06:02;22.80;50.40
51613;DHT22;37694;51.748;14.326;2022-08-19T14:08:28;22.70;50.60
51613;DHT22;37694;51.748;14.326;2022-08-19T14:10:55;22.60;50.20
51613;DHT22;37694;51.748;14.326;2022-08-19T14:13:22;22.60;50.00
51613;DHT22;37694;51.748;14.326;2022-08-19T14:15:49;22.60;49.70
51613;DHT22;37694;51.748;14.326;2022-08-19T14:18:17;22.60;49.50
51613;DHT22;37694;51.748;14.326;2022-08-19T14:20:43;22.60;49.10
51613;DHT22;37694;51.748;14.326;2022-08-19T14:23:09;22.60;48.60
51613;DHT22;37694;51.748;14.326;2022-08-19T14:25:35;22.60;48.60
51613;DHT22;37694;51.748;14.326;2022-08-19T14:28:00;22.60;48.30
51613;DHT22;37694;51.748;14.326;2022-08-19T14:30:31;22.60;48.10
51613;DHT22;37694;51.748;14.326;2022-08-19T14:32:59;22.50;47.80
51613;DHT22;37694;51.748;14.326;2022-08-19T14:35:27;22.60;47.70
51613;DHT22;37694;51.748;14.326;2022-08-19T14:37:53;22.60;47.30
51613;DHT22;37694;51.748;14.326;2022-08-19T14:40:22;22.50;47.30
51613;DHT22;37694;51.748;14.326;2022-08-19T14:42:52;22.50;46.90
51613;DHT22;37694;51.748;14.326;2022-08-19T14:45:17;22.50;47.10
51613;DHT22;37694;51.748;14.326;2022-08-19T14:47:43;22.50;46.90
51613;DHT22;37694;51.748;14.326;2022-08-19T14:50:10;22.40;47.00
51613;DHT22;37694;51.748;14.326;2022-08-19T14:52:36;22.40;46.60
51613;DHT22;37694;51.748;14.326;2022-08-19T14:55:03;22.30;46.50
51613;DHT22;37694;51.748;14.326;2022-08-19T14:57:29;22.30;46.40
51613;DHT22;37694;51.748;14.326;2022-08-19T14:59:54;22.30;46.10
51613;DHT22;37694;51.748;14.326;2022-08-19T15:02:20;22.30;46.10
51613;DHT22;37694;51.748;14.326;2022-08-19T15:04:46;22.30;46.10
51613;DHT22;37694;51.748;14.326;2022-08-19T15:07:11;22.30;45.90
51613;DHT22;37694;51.748;14.326;2022-08-19T15:09:37;22.40;46.70
51613;DHT22;37694;51.748;14.326;2022-08-19T15:12:03;22.50;46.90
51613;DHT22;37694;51.748;14.326;2022-08-19T15:14:29;22.60;46.70
51613;DHT22;37694;51.748;14.326;2022-08-19T15:17:04;22.80;46.50
51613;DHT22;37694;51.748;14.326;2022-08-19T15:19:31;22.90;45.90
51613;DHT22;37694;51.748;14.326;2022-08-19T15:21:58;23.00;45.80
51613;DHT22;37694;51.748;14.326;2022-08-19T15:24:24;23.00;45.40
51613;DHT22;37694;51.748;14.326;2022-08-19T15:26:52;23.10;45.50
51613;DHT22;37694;51.748;14.326;2022-08-19T15:29:17;23.20;45.30
51613;DHT22;37694;51.748;14.326;2022-08-19T15:31:43;23.20;45.30